createdAt,value
2018-02-11T00:00:43.990Z,38.40
2018-02-11T00:03:11.558Z,34.53
2018-02-11T00:05:39.440Z,35.37
2018-02-11T00:08:06.972Z,34.10
2018-02-11T00:10:34.537Z,34.93
2018-02-11T00:13:02.269Z,36.37
2018-02-11T00:15:29.803Z,36.00
2018-02-11T00:17:57.362Z,37.03
2018-02-11T00:20:24.926Z,35.80
2018-02-11T00:22:52.557Z,35.30
2018-02-11T00:25:20.246Z,35.80
2018-02-11T00:27:47.787Z,34.67
2018-02-11T00:30:15.446Z,34.60
2018-02-11T00:32:42.987Z,35.83
2018-02-11T00:35:10.537Z,34.33
2018-02-11T00:37:43.674Z,34.93
2018-02-11T00:40:11.239Z,36.00
2018-02-11T00:42:38.783Z,35.20
2018-02-11T00:45:06.400Z,34.90
2018-02-11T00:47:34.017Z,36.47
2018-02-11T00:50:01.610Z,36.07
2018-02-11T00:52:29.153Z,35.97
2018-02-11T00:54:56.714Z,33.83
2018-02-11T00:57:24.275Z,34.87
2018-02-11T00:59:51.811Z,35.50
2018-02-11T01:02:19.379Z,36.90
2018-02-11T01:04:46.925Z,33.87
2018-02-11T01:07:14.680Z,35.13
2018-02-11T01:09:42.257Z,33.77
2018-02-11T01:12:09.805Z,35.50
2018-02-11T01:14:37.338Z,34.40
2018-02-11T01:17:04.896Z,34.30
2018-02-11T01:19:32.417Z,35.20
2018-02-11T01:22:00.076Z,34.80
2018-02-11T01:24:27.634Z,37.50
2018-02-11T01:26:55.607Z,35.03
2018-02-11T01:29:23.156Z,35.90
2018-02-11T01:31:50.737Z,35.77
2018-02-11T01:34:18.256Z,35.43
2018-02-11T01:36:45.804Z,33.80
2018-02-11T01:39:13.345Z,33.43
2018-02-11T01:41:40.886Z,35.23
2018-02-11T01:44:08.401Z,34.30
2018-02-11T01:46:35.960Z,32.50
2018-02-11T01:49:03.512Z,34.73
2018-02-11T01:51:31.044Z,35.13
2018-02-11T01:53:58.601Z,33.23
2018-02-11T01:56:26.134Z,34.07
2018-02-11T01:58:54.032Z,32.97
2018-02-11T02:01:21.612Z,33.30
2018-02-11T02:03:49.417Z,33.10
2018-02-11T02:06:16.991Z,32.70
2018-02-11T02:08:44.550Z,35.00
2018-02-11T02:11:12.079Z,35.03
2018-02-11T02:13:39.681Z,34.30
2018-02-11T02:16:07.244Z,35.53
2018-02-11T02:18:34.777Z,35.00
2018-02-11T02:21:02.336Z,34.27
2018-02-11T02:23:30.218Z,34.50
2018-02-11T02:25:57.732Z,32.53
2018-02-11T02:28:25.548Z,34.80
2018-02-11T02:30:53.138Z,34.10
2018-02-11T02:33:20.976Z,32.73
2018-02-11T02:35:48.507Z,34.03
2018-02-11T02:38:16.052Z,34.20
2018-02-11T02:40:43.569Z,32.63
2018-02-11T02:43:11.087Z,35.17
2018-02-11T02:45:38.660Z,35.00
2018-02-11T02:48:06.227Z,35.13
2018-02-11T02:50:33.790Z,34.80
2018-02-11T02:53:01.663Z,33.57
2018-02-11T02:55:29.199Z,35.90
2018-02-11T02:57:56.771Z,33.27
2018-02-11T03:00:24.334Z,34.40
2018-02-11T03:02:52.010Z,32.70
2018-02-11T03:05:19.611Z,32.80
2018-02-11T03:07:47.158Z,33.37
2018-02-11T03:10:14.714Z,34.60
2018-02-11T03:12:42.240Z,35.07
2018-02-11T03:15:09.793Z,32.80
2018-02-11T03:17:37.308Z,34.53
2018-02-11T03:20:04.847Z,35.23
2018-02-11T03:22:32.700Z,35.23
2018-02-11T03:25:00.235Z,34.53
2018-02-11T03:27:27.764Z,35.00
2018-02-11T03:29:55.360Z,34.57
2018-02-11T03:32:23.150Z,34.50
2018-02-11T03:34:50.733Z,34.30
2018-02-11T03:37:18.254Z,35.67
2018-02-11T03:39:45.841Z,33.20
2018-02-11T03:42:13.623Z,33.37
2018-02-11T03:44:41.170Z,35.00
2018-02-11T03:47:08.745Z,33.60
2018-02-11T03:49:36.544Z,34.80
2018-02-11T03:52:04.135Z,34.20
2018-02-11T03:54:31.660Z,34.13
2018-02-11T03:56:59.224Z,34.13
2018-02-11T03:59:26.798Z,34.47
2018-02-11T04:01:54.593Z,36.20
2018-02-11T04:04:22.150Z,34.73
2018-02-11T04:06:49.693Z,34.07
2018-02-11T04:09:17.473Z,35.27
2018-02-11T04:11:45.020Z,32.53
2018-02-11T04:14:12.547Z,33.60
2018-02-11T04:16:40.104Z,34.40
2018-02-11T04:19:07.633Z,32.23
2018-02-11T04:21:35.171Z,35.47
2018-02-11T04:24:03.049Z,33.60
2018-02-11T04:26:30.909Z,34.10
2018-02-11T04:28:58.468Z,33.93
2018-02-11T04:31:26.242Z,34.13
2018-02-11T04:33:53.802Z,36.27
2018-02-11T04:36:21.338Z,33.60
2018-02-11T04:38:48.878Z,33.30
2018-02-11T04:41:16.460Z,32.87
2018-02-11T04:43:43.991Z,35.77
2018-02-11T04:46:11.536Z,32.80
2018-02-11T04:48:39.085Z,34.60
2018-02-11T04:51:06.614Z,33.90
2018-02-11T04:53:34.206Z,34.47
2018-02-11T04:56:01.739Z,34.43
2018-02-11T04:58:29.300Z,33.90
2018-02-11T05:00:56.865Z,33.80
2018-02-11T05:03:24.414Z,32.60
2018-02-11T05:05:52.018Z,33.97
2018-02-11T05:08:19.672Z,31.57
2018-02-11T05:10:47.216Z,34.50
2018-02-11T05:13:14.778Z,34.07
2018-02-11T05:15:42.315Z,33.03
2018-02-11T05:18:09.866Z,35.00
2018-02-11T05:20:37.662Z,35.60
2018-02-11T05:23:05.432Z,33.70
2018-02-11T05:25:33.026Z,33.60
2018-02-11T05:28:00.596Z,34.47
2018-02-11T05:30:28.168Z,33.50
2018-02-11T05:32:55.736Z,32.83
2018-02-11T05:35:23.298Z,35.07
2018-02-11T05:37:50.843Z,33.30
2018-02-11T05:40:18.399Z,33.30
2018-02-11T05:42:45.958Z,32.90
2018-02-11T05:45:13.525Z,35.40
2018-02-11T05:47:41.140Z,32.63
2018-02-11T05:50:09.004Z,32.43
2018-02-11T05:52:36.546Z,33.23
2018-02-11T05:55:04.155Z,33.87
2018-02-11T05:57:31.735Z,34.10
2018-02-11T05:59:59.555Z,32.93
2018-02-11T06:02:27.422Z,33.00
2018-02-11T06:04:54.979Z,34.80
2018-02-11T06:07:22.515Z,33.07
2018-02-11T06:09:50.090Z,34.20
2018-02-11T06:12:17.630Z,34.17
2018-02-11T06:14:45.192Z,32.17
2018-02-11T06:17:12.810Z,32.97
2018-02-11T06:19:40.463Z,32.07
2018-02-11T06:22:08.054Z,34.10
2018-02-11T06:24:35.591Z,34.50
2018-02-11T06:27:03.139Z,32.93
2018-02-11T06:29:30.673Z,32.70
2018-02-11T06:31:58.215Z,32.20
2018-02-11T06:34:25.781Z,33.50
2018-02-11T06:36:53.365Z,31.40
2018-02-11T06:39:20.900Z,30.60
2018-02-11T06:41:48.446Z,30.50
2018-02-11T06:44:16.027Z,30.90
2018-02-11T06:46:43.925Z,30.30
2018-02-11T06:49:11.791Z,31.20
2018-02-11T06:51:39.355Z,28.23
2018-02-11T06:54:06.859Z,31.57
2018-02-11T06:56:34.413Z,28.60
2018-02-11T06:59:01.959Z,28.50
2018-02-11T07:01:29.550Z,28.50
2018-02-11T07:03:57.167Z,27.13
2018-02-11T07:06:25.029Z,29.17
2018-02-11T07:08:52.894Z,28.20
2018-02-11T07:11:20.452Z,28.27
2018-02-11T07:13:48.321Z,31.07
2018-02-11T07:16:15.850Z,27.23
2018-02-11T07:18:43.383Z,27.00
2018-02-11T07:21:11.206Z,26.37
2018-02-11T07:23:39.032Z,26.47
2018-02-11T07:26:06.594Z,27.73
2018-02-11T07:28:34.209Z,25.93
2018-02-11T07:31:01.911Z,25.93
2018-02-11T07:33:29.488Z,25.27
2018-02-11T07:35:57.053Z,24.00
2018-02-11T07:38:24.668Z,24.27
2018-02-11T07:40:52.330Z,24.80
2018-02-11T07:43:19.896Z,24.47
2018-02-11T07:45:47.508Z,23.47
2018-02-11T07:48:15.018Z,23.70
2018-02-11T07:50:42.629Z,24.70
2018-02-11T07:53:10.306Z,22.60
2018-02-11T07:55:37.899Z,21.87
2018-02-11T07:58:05.753Z,23.00
2018-02-11T08:00:33.316Z,21.93
2018-02-11T08:03:00.901Z,22.80
2018-02-11T08:05:28.524Z,21.80
2018-02-11T08:07:56.609Z,20.10
2018-02-11T08:10:24.269Z,21.03
2018-02-11T08:12:52.141Z,20.97
2018-02-11T08:15:19.716Z,21.10
2018-02-11T08:17:47.291Z,21.10
2018-02-11T08:20:14.824Z,20.37
2018-02-11T08:22:42.411Z,19.80
2018-02-11T08:25:09.993Z,19.53
2018-02-11T08:27:37.533Z,19.63
2018-02-11T08:30:05.103Z,19.93
2018-02-11T08:32:32.661Z,20.83
2018-02-11T08:35:00.220Z,20.80
2018-02-11T08:37:27.761Z,19.63
2018-02-11T08:39:55.652Z,21.13
2018-02-11T08:42:23.192Z,19.37
2018-02-11T08:44:50.795Z,22.10
2018-02-11T08:47:18.388Z,19.30
2018-02-11T08:49:46.268Z,20.20
2018-02-11T08:52:13.844Z,20.63
2018-02-11T08:54:41.421Z,20.43
2018-02-11T08:57:08.926Z,18.90
2018-02-11T08:59:36.489Z,19.03
2018-02-11T09:02:04.266Z,18.50
2018-02-11T09:04:32.136Z,18.07
2018-02-11T09:06:59.673Z,18.30
2018-02-11T09:09:27.462Z,19.33
2018-02-11T09:11:55.334Z,18.20
2018-02-11T09:14:22.864Z,20.00
2018-02-11T09:16:50.428Z,18.20
2018-02-11T09:19:17.959Z,18.90
2018-02-11T09:21:45.503Z,18.47
2018-02-11T09:24:13.049Z,18.37
2018-02-11T09:26:40.590Z,19.67
2018-02-11T09:29:08.458Z,17.83
2018-02-11T09:31:35.980Z,17.00
2018-02-11T09:34:03.499Z,16.60
2018-02-11T09:36:31.062Z,17.23
2018-02-11T09:38:58.665Z,17.13
2018-02-11T09:41:26.468Z,16.57
2018-02-11T09:43:54.904Z,16.60
2018-02-11T09:46:22.442Z,16.40
2018-02-11T09:48:49.973Z,16.20
2018-02-11T09:51:17.523Z,16.37
2018-02-11T09:53:45.072Z,17.70
2018-02-11T09:56:12.618Z,16.30
2018-02-11T09:58:40.144Z,16.50
2018-02-11T10:01:07.983Z,15.77
2018-02-11T10:03:35.770Z,17.43
2018-02-11T10:06:03.327Z,16.30
2018-02-11T10:08:30.850Z,14.93
2018-02-11T10:10:58.386Z,15.63
2018-02-11T10:13:25.947Z,15.60
2018-02-11T10:15:53.477Z,15.63
2018-02-11T10:18:21.050Z,15.30
2018-02-11T10:20:48.589Z,15.17
2018-02-11T10:23:16.110Z,15.80
2018-02-11T10:25:43.652Z,15.30
2018-02-11T10:28:11.172Z,15.10
2018-02-11T10:30:38.769Z,17.00
2018-02-11T10:33:06.679Z,14.80
2018-02-11T10:35:34.212Z,15.47
2018-02-11T10:38:01.751Z,15.73
2018-02-11T10:40:29.567Z,15.27
2018-02-11T10:42:57.125Z,14.57
2018-02-11T10:45:24.651Z,15.03
2018-02-11T10:47:52.219Z,14.43
2018-02-11T10:50:19.762Z,14.70
2018-02-11T10:52:47.692Z,14.60
2018-02-11T10:55:15.247Z,13.80
2018-02-11T10:57:42.781Z,14.13
2018-02-11T11:00:10.296Z,14.00
2018-02-11T11:02:37.844Z,14.00
2018-02-11T11:05:05.372Z,14.60
2018-02-11T11:07:32.951Z,13.80
2018-02-11T11:10:00.503Z,13.87
2018-02-11T11:12:28.034Z,14.67
2018-02-11T11:14:55.938Z,14.70
2018-02-11T11:17:24.789Z,15.57
2018-02-11T11:19:52.633Z,13.60
2018-02-11T11:22:20.155Z,15.67
2018-02-11T11:24:47.708Z,15.10
2018-02-11T11:27:15.277Z,15.00
2018-02-11T11:29:42.905Z,14.97
2018-02-11T11:32:10.792Z,16.73
2018-02-11T11:34:38.303Z,15.67
2018-02-11T11:37:05.910Z,15.63
2018-02-11T11:39:33.484Z,14.20
2018-02-11T11:42:01.237Z,15.37
2018-02-11T11:44:28.867Z,16.40
2018-02-11T11:46:56.374Z,15.70
2018-02-11T11:49:23.909Z,15.60
2018-02-11T11:51:51.693Z,15.17
2018-02-11T11:54:19.216Z,13.93
2018-02-11T11:56:47.022Z,15.37
2018-02-11T11:59:14.562Z,14.40
2018-02-11T12:01:42.111Z,14.73
2018-02-11T12:04:09.673Z,15.30
2018-02-11T12:06:37.400Z,14.23
2018-02-11T12:09:04.997Z,14.20
2018-02-11T12:11:32.602Z,13.73
2018-02-11T12:14:00.316Z,14.63
2018-02-11T12:16:27.849Z,13.00
2018-02-11T12:18:55.391Z,15.30
2018-02-11T12:21:22.935Z,14.37
2018-02-11T12:23:50.698Z,14.07
2018-02-11T12:26:18.225Z,14.30
2018-02-11T12:28:45.764Z,14.60
2018-02-11T12:31:13.347Z,14.13
2018-02-11T12:33:40.898Z,14.53
2018-02-11T12:36:08.455Z,14.17
2018-02-11T12:38:35.996Z,14.30
2018-02-11T12:41:03.558Z,15.40
2018-02-11T12:43:31.091Z,14.70
2018-02-11T12:45:58.674Z,17.27
2018-02-11T12:48:26.517Z,15.97
2018-02-11T12:50:54.094Z,15.57
2018-02-11T12:53:21.952Z,16.17
2018-02-11T12:55:49.566Z,16.50
2018-02-11T12:58:17.482Z,15.53
2018-02-11T13:00:45.038Z,16.00
2018-02-11T13:03:12.563Z,17.47
2018-02-11T13:05:40.147Z,16.17
2018-02-11T13:08:07.735Z,17.07
2018-02-11T13:10:35.563Z,16.90
2018-02-11T13:13:03.121Z,16.70
2018-02-11T13:15:30.744Z,16.93
2018-02-11T13:17:58.318Z,16.03
2018-02-11T13:20:25.944Z,16.03
2018-02-11T13:22:53.507Z,16.90
2018-02-11T13:25:21.356Z,16.20
2018-02-11T13:27:48.980Z,16.47
2018-02-11T13:30:16.510Z,16.10
2018-02-11T13:32:44.365Z,16.70
2018-02-11T13:35:12.006Z,16.80
2018-02-11T13:37:39.614Z,16.37
2018-02-11T13:40:07.145Z,15.73
2018-02-11T13:42:34.710Z,16.20
2018-02-11T13:45:02.296Z,16.47
2018-02-11T13:47:30.081Z,16.17
2018-02-11T13:49:57.637Z,15.60
2018-02-11T13:52:25.192Z,17.17
2018-02-11T13:54:52.765Z,16.87
2018-02-11T13:57:20.380Z,17.90
2018-02-11T13:59:47.991Z,17.03
2018-02-11T14:02:15.554Z,16.40
2018-02-11T14:04:43.454Z,18.20
2018-02-11T14:07:11.010Z,17.70
2018-02-11T14:09:38.564Z,17.20
2018-02-11T14:12:06.149Z,17.50
2018-02-11T14:14:33.693Z,17.43
2018-02-11T14:17:01.250Z,19.47
2018-02-11T14:19:28.832Z,18.13
2018-02-11T14:21:56.375Z,18.43
2018-02-11T14:24:23.985Z,17.70
2018-02-11T14:26:51.544Z,18.00
2018-02-11T14:29:19.108Z,17.10
2018-02-11T14:31:46.934Z,18.73
2018-02-11T14:34:14.481Z,19.30
2018-02-11T14:36:42.081Z,18.47
2018-02-11T14:39:09.933Z,18.03
2018-02-11T14:41:37.481Z,18.30
2018-02-11T14:44:05.142Z,16.87
2018-02-11T14:46:32.694Z,18.87
2018-02-11T14:49:00.239Z,17.13
2018-02-11T14:51:27.856Z,18.33
2018-02-11T14:53:55.493Z,18.90
2018-02-11T14:56:23.043Z,18.90
2018-02-11T14:58:50.998Z,19.03
2018-02-11T15:01:18.616Z,17.53
2018-02-11T15:03:46.275Z,18.90
2018-02-11T15:06:13.934Z,19.10
2018-02-11T15:08:41.703Z,18.53
2018-02-11T15:11:09.256Z,18.40
2018-02-11T15:13:36.864Z,19.40
2018-02-11T15:16:04.669Z,19.97
2018-02-11T15:18:32.275Z,19.57
2018-02-11T15:21:00.427Z,19.27
2018-02-11T15:23:28.062Z,19.87
2018-02-11T15:25:55.625Z,20.60
2018-02-11T15:28:23.295Z,18.47
2018-02-11T15:30:50.902Z,19.60
2018-02-11T15:33:18.462Z,20.50
2018-02-11T15:35:46.042Z,18.23
2018-02-11T15:38:13.634Z,21.70
2018-02-11T15:40:41.321Z,19.80
2018-02-11T15:43:08.903Z,18.90
2018-02-11T15:45:36.459Z,17.90
2018-02-11T15:48:04.305Z,17.70
2018-02-11T15:50:32.140Z,18.73
2018-02-11T15:52:59.713Z,19.10
2018-02-11T15:55:27.359Z,17.20
2018-02-11T15:57:54.900Z,17.33
2018-02-11T16:00:22.476Z,18.10
2018-02-11T16:02:50.380Z,17.23
2018-02-11T16:05:17.946Z,18.20
2018-02-11T16:07:45.568Z,17.67
2018-02-11T16:10:13.454Z,16.67
2018-02-11T16:12:41.079Z,16.43
2018-02-11T16:15:08.651Z,16.60
2018-02-11T16:17:36.310Z,17.10
2018-02-11T16:20:03.979Z,16.17
2018-02-11T16:22:31.505Z,15.87
2018-02-11T16:24:59.074Z,15.73
2018-02-11T16:27:26.667Z,16.03
2018-02-11T16:29:54.385Z,16.10
2018-02-11T16:32:21.988Z,16.50
2018-02-11T16:34:49.566Z,16.13
2018-02-11T16:37:17.276Z,15.20
2018-02-11T16:39:44.952Z,17.30
2018-02-11T16:42:12.687Z,16.20
2018-02-11T16:44:40.256Z,15.40
2018-02-11T16:47:08.110Z,15.40
2018-02-11T16:49:35.814Z,15.17
2018-02-11T16:52:03.412Z,15.93
2018-02-11T16:54:30.996Z,14.20
2018-02-11T16:56:58.583Z,14.57
2018-02-11T16:59:26.205Z,15.10
2018-02-11T17:01:53.817Z,14.70
2018-02-11T17:04:21.382Z,14.60
2018-02-11T17:06:48.990Z,16.23
2018-02-11T17:09:16.762Z,14.03
2018-02-11T17:11:44.390Z,13.53
2018-02-11T17:14:11.947Z,13.90
2018-02-11T17:16:39.609Z,14.40
2018-02-11T17:19:07.277Z,13.67
2018-02-11T17:21:34.830Z,14.00
2018-02-11T17:24:03.035Z,15.60
2018-02-11T17:26:30.688Z,13.67
2018-02-11T17:28:58.417Z,14.87
2018-02-11T17:31:26.231Z,13.37
2018-02-11T17:33:53.827Z,13.63
2018-02-11T17:36:21.369Z,13.93
2018-02-11T17:38:48.980Z,14.50
2018-02-11T17:41:16.512Z,14.33
2018-02-11T17:43:44.038Z,12.70
2018-02-11T17:46:11.600Z,13.53
2018-02-11T17:48:39.138Z,13.40
2018-02-11T17:51:06.710Z,13.00
2018-02-11T17:53:34.234Z,12.93
2018-02-11T17:56:01.770Z,13.10
2018-02-11T17:58:29.331Z,13.80
2018-02-11T18:00:56.922Z,13.80
2018-02-11T18:03:24.726Z,13.50
2018-02-11T18:05:52.301Z,12.97
2018-02-11T18:08:19.885Z,13.90
2018-02-11T18:10:47.462Z,13.90
2018-02-11T18:13:15.050Z,12.60
2018-02-11T18:15:42.843Z,16.30
2018-02-11T18:18:10.363Z,13.13
2018-02-11T18:20:37.934Z,13.07
2018-02-11T18:23:05.490Z,12.47
2018-02-11T18:25:33.037Z,13.50
2018-02-11T18:28:01.005Z,12.80
2018-02-11T18:30:28.535Z,13.17
2018-02-11T18:32:56.070Z,13.50
2018-02-11T18:35:23.919Z,12.60
2018-02-11T18:37:51.498Z,12.97
2018-02-11T18:40:19.122Z,14.27
2018-02-11T18:42:46.676Z,13.60
2018-02-11T18:45:14.498Z,12.53
2018-02-11T18:47:42.046Z,12.77
2018-02-11T18:50:09.581Z,13.80
2018-02-11T18:52:37.226Z,13.03
2018-02-11T18:55:04.777Z,12.43
2018-02-11T18:57:32.303Z,13.40
2018-02-11T18:59:59.847Z,12.90
2018-02-11T19:02:27.389Z,12.53
2018-02-11T19:04:54.961Z,12.80
2018-02-11T19:07:22.496Z,14.57
2018-02-11T19:09:50.317Z,13.87
2018-02-11T19:12:17.891Z,12.80
2018-02-11T19:14:45.457Z,13.80
2018-02-11T19:17:13.070Z,16.63
2018-02-11T19:19:40.612Z,12.50
2018-02-11T19:22:08.263Z,12.20
2018-02-11T19:24:35.839Z,13.30
2018-02-11T19:27:03.478Z,12.43
2018-02-11T19:29:31.077Z,12.33
2018-02-11T19:31:58.841Z,12.80
2018-02-11T19:34:26.510Z,13.60
2018-02-11T19:36:54.458Z,11.73
2018-02-11T19:39:22.142Z,12.80
2018-02-11T19:41:49.877Z,13.17
2018-02-11T19:44:17.434Z,12.20
2018-02-11T19:46:45.032Z,13.90
2018-02-11T19:49:12.929Z,12.60
2018-02-11T19:51:40.643Z,12.10
2018-02-11T19:54:08.264Z,12.63
2018-02-11T19:56:35.834Z,13.53
2018-02-11T19:59:03.395Z,13.03
2018-02-11T20:01:30.991Z,12.20
2018-02-11T20:03:58.596Z,12.70
2018-02-11T20:06:26.193Z,12.17
2018-02-11T20:08:53.777Z,11.93
2018-02-11T20:11:21.981Z,12.87
2018-02-11T20:13:49.642Z,12.83
2018-02-11T20:16:17.201Z,12.40
2018-02-11T20:18:44.762Z,13.07
2018-02-11T20:21:12.317Z,14.03
2018-02-11T20:23:39.855Z,12.93
2018-02-11T20:26:07.461Z,11.70
2018-02-11T20:28:35.011Z,13.17
2018-02-11T20:31:02.684Z,12.83
2018-02-11T20:33:30.283Z,12.23
2018-02-11T20:35:58.156Z,12.70
2018-02-11T20:38:25.788Z,12.77
2018-02-11T20:40:53.485Z,12.77
2018-02-11T20:43:21.397Z,13.17
2018-02-11T20:45:49.234Z,12.87
2018-02-11T20:48:16.778Z,12.90
2018-02-11T20:50:44.802Z,12.20
2018-02-11T20:53:12.571Z,11.80
2018-02-11T20:55:40.181Z,12.57
2018-02-11T20:58:07.941Z,12.60
2018-02-11T21:00:35.523Z,13.30
2018-02-11T21:03:03.315Z,13.40
2018-02-11T21:05:33.194Z,12.67
2018-02-11T21:08:01.000Z,13.00
2018-02-11T21:10:28.725Z,12.10
2018-02-11T21:12:56.274Z,12.80
2018-02-11T21:15:23.947Z,12.10
2018-02-11T21:17:52.323Z,12.70
2018-02-11T21:20:19.947Z,11.97
2018-02-11T21:22:48.425Z,12.53
2018-02-11T21:25:15.971Z,12.50
2018-02-11T21:27:43.549Z,12.83
2018-02-11T21:30:12.220Z,12.53
2018-02-11T21:32:39.796Z,13.47
2018-02-11T21:35:07.383Z,13.10
2018-02-11T21:37:34.922Z,12.87
2018-02-11T21:40:02.776Z,13.00
2018-02-11T21:42:30.377Z,13.90
2018-02-11T21:44:58.009Z,12.67
2018-02-11T21:47:25.554Z,13.20
2018-02-11T21:49:53.140Z,12.77
2018-02-11T21:52:20.684Z,13.33
2018-02-11T21:54:48.261Z,13.60
2018-02-11T21:57:15.865Z,12.50
2018-02-11T21:59:43.790Z,13.10
2018-02-11T22:02:11.648Z,13.03
2018-02-11T22:04:39.921Z,12.77
2018-02-11T22:07:07.463Z,12.80
2018-02-11T22:09:35.066Z,13.10
2018-02-11T22:12:02.608Z,12.37
2018-02-11T22:14:30.146Z,14.30
2018-02-11T22:16:57.695Z,13.00
2018-02-11T22:19:25.583Z,12.03
2018-02-11T22:21:53.164Z,12.80
2018-02-11T22:24:20.759Z,13.60
2018-02-11T22:26:48.302Z,12.80
2018-02-11T22:29:15.909Z,12.70
2018-02-11T22:31:43.472Z,13.10
2018-02-11T22:34:11.040Z,12.80
2018-02-11T22:36:38.922Z,13.80
2018-02-11T22:39:06.444Z,12.70
2018-02-11T22:41:33.995Z,13.30
2018-02-11T22:44:01.813Z,12.73
2018-02-11T22:46:29.404Z,13.30
2018-02-11T22:48:57.166Z,12.50
2018-02-11T22:51:24.691Z,12.93
2018-02-11T22:53:52.247Z,13.17
2018-02-11T22:56:20.029Z,12.63
2018-02-11T22:58:47.583Z,12.83
2018-02-11T23:01:15.255Z,13.90
2018-02-11T23:03:42.799Z,13.60
2018-02-11T23:06:10.320Z,12.70
2018-02-11T23:08:37.879Z,12.73
2018-02-11T23:11:05.641Z,13.10
2018-02-11T23:13:33.217Z,13.57
2018-02-11T23:16:00.751Z,13.37
2018-02-11T23:18:28.274Z,13.70
2018-02-11T23:20:55.852Z,13.17
2018-02-11T23:23:23.472Z,14.23
2018-02-11T23:25:51.016Z,12.83
2018-02-11T23:28:18.535Z,13.53
2018-02-11T23:30:46.114Z,13.70
2018-02-11T23:33:13.679Z,13.27
2018-02-11T23:35:41.505Z,13.70
2018-02-11T23:38:09.320Z,13.87
2018-02-11T23:40:36.861Z,13.60
2018-02-11T23:43:04.471Z,13.50
2018-02-11T23:45:32.032Z,14.57
2018-02-11T23:47:59.573Z,13.43
2018-02-11T23:50:27.187Z,13.20
2018-02-11T23:52:54.701Z,13.70
2018-02-11T23:55:22.608Z,13.80
2018-02-11T23:57:50.138Z,14.30
